Time;durP1;ratioP1;P1;durP2;ratioP2;P2;SDS_P1;SDS_P2;PMS_P1;PMS_P2;Temp;Humidity;BMP_temperature;BMP_pressure;BME280_temperature;BME280_humidity;BME280_pressure;Samples;Min_cycle;Max_cycle;Signal;HPM_P1;HPM_P2
2021/12/27 00:00:36;;;;;;;149.95;57.55;;;;;;;-9.48;71.79;100226.22;2043828;87;29137;-73
2021/12/27 00:03:42;;;;;;;151.25;53.95;;;;;;;-9.51;71.66;100229.15;2043684;87;27619;-73
2021/12/27 00:06:45;;;;;;;152.70;56.33;;;;;;;-9.53;71.73;100226.92;2043999;87;33103;-72
2021/12/27 00:09:48;;;;;;;162.43;55.90;;;;;;;-9.56;71.74;100217.75;2043771;87;30004;-66
2021/12/27 00:12:51;;;;;;;141.30;53.73;;;;;;;-9.57;71.70;100216.88;2044139;87;27524;-72
2021/12/27 00:15:53;;;;;;;154.05;56.25;;;;;;;-9.58;71.71;100215.52;2043937;87;28668;-71
2021/12/27 00:18:54;;;;;;;148.47;53.20;;;;;;;-9.59;71.67;100215.09;2043898;87;31032;-74
2021/12/27 00:21:57;;;;;;;155.50;55.05;;;;;;;-9.64;71.47;100214.92;2043766;87;34175;-74
2021/12/27 00:24:58;;;;;;;143.85;54.50;;;;;;;-9.67;71.57;100213.53;2043814;87;29316;-75
2021/12/27 00:28:01;;;;;;;162.68;55.67;;;;;;;-9.70;71.47;100213.03;2043567;87;27643;-74
2021/12/27 00:31:04;;;;;;;153.30;56.15;;;;;;;-9.73;71.53;100206.87;2043855;87;28266;-71
2021/12/27 00:34:06;;;;;;;158.57;56.65;;;;;;;-9.76;71.53;100197.30;2043922;87;32393;-72
2021/12/27 00:37:10;;;;;;;144.22;53.02;;;;;;;-9.77;71.55;100198.13;2043468;87;33000;-75
2021/12/27 00:40:13;;;;;;;140.52;50.10;;;;;;;-9.80;71.47;100201.92;2043893;87;29346;-74
2021/12/27 00:43:16;;;;;;;145.68;49.15;;;;;;;-9.80;71.46;100205.38;2043853;87;27710;-74
2021/12/27 00:46:18;;;;;;;141.10;50.78;;;;;;;-9.80;71.45;100206.67;2043710;87;29891;-74
2021/12/27 00:49:20;;;;;;;133.60;51.98;;;;;;;-9.82;71.39;100201.85;2043375;87;31921;-74
2021/12/27 00:52:22;;;;;;;123.22;46.65;;;;;;;-9.82;71.41;100207.03;2043764;87;33364;-65
2021/12/27 00:55:27;;;;;;;138.28;49.77;;;;;;;-9.82;71.35;100210.92;2043471;87;30176;-73
2021/12/27 00:58:29;;;;;;;;;;;;;;;-9.85;71.24;100209.56;2046035;87;27897;-73
2021/12/27 01:01:31;;;;;;;135.93;49.80;;;;;;;-9.85;71.36;100216.44;2043457;87;29884;-73
2021/12/27 01:04:33;;;;;;;135.85;49.00;;;;;;;-9.86;71.43;100217.27;2043226;87;32197;-73
2021/12/27 01:07:35;;;;;;;134.40;48.98;;;;;;;-9.88;71.32;100216.33;2043696;87;33380;-73
2021/12/27 01:13:47;;;;;;;134.12;48.50;;;;;;;-9.93;71.34;100221.38;1968879;90;27825;-73
2021/12/27 01:16:49;;;;;;;115.10;44.98;;;;;;;-9.97;71.23;100216.52;1921927;92;28644;-74
2021/12/27 01:19:51;;;;;;;130.43;44.95;;;;;;;-9.99;71.23;100214.69;1953262;91;31036;-60
2021/12/27 01:22:55;;;;;;;125.92;42.88;;;;;;;-10.02;71.22;100209.44;1953324;91;34206;-61
2021/12/27 01:25:57;;;;;;;116.73;42.88;;;;;;;-10.03;71.29;100212.42;1953323;91;29348;-61
2021/12/27 01:29:06;;;;;;;120.10;41.37;;;;;;;-10.04;71.28;100205.48;1953792;91;27685;-61
2021/12/27 01:32:07;;;;;;;118.65;40.50;;;;;;;-10.07;71.27;100203.69;1953103;91;29484;-61
2021/12/27 01:35:09;;;;;;;120.37;41.83;;;;;;;-10.08;71.27;100208.40;1953351;91;31661;-64
2021/12/27 01:38:12;;;;;;;113.80;44.35;;;;;;;-10.09;71.32;100209.23;1953320;91;33215;-60
2021/12/27 01:41:17;;;;;;;129.42;42.58;;;;;;;-10.09;71.37;100200.59;1953610;91;30235;-61
2021/12/27 01:44:19;;;;;;;115.50;42.45;;;;;;;-10.09;71.30;100195.41;1953576;91;27676;-77
2021/12/27 01:47:21;;;;;;;126.20;44.10;;;;;;;-10.09;71.21;100196.70;1953350;91;29922;-71
2021/12/27 01:50:23;;;;;;;121.60;44.13;;;;;;;-10.09;71.22;100200.16;1974730;88;32016;-76
2021/12/27 01:53:30;;;;;;;126.60;45.90;;;;;;;-10.09;71.19;100196.27;2017803;88;29406;-68
2021/12/27 01:56:32;;;;;;;141.95;48.15;;;;;;;-10.07;71.27;100188.53;2017711;88;29404;-70
2021/12/27 01:59:34;;;;;;;135.97;48.17;;;;;;;-10.05;71.33;100189.91;2009842;88;27695;-61
2021/12/27 02:02:36;;;;;;;127.20;49.10;;;;;;;-10.04;71.28;100193.83;2008977;88;30010;-61
2021/12/27 02:05:38;;;;;;;127.78;48.50;;;;;;;-10.03;71.25;100191.70;2009486;88;32018;-61
2021/12/27 02:08:43;;;;;;;136.65;51.48;;;;;;;-10.03;71.26;100183.92;2009299;88;33382;-65
2021/12/27 02:11:46;;;;;;;143.95;51.35;;;;;;;-10.05;71.21;100177.81;1982817;88;29474;-71
2021/12/27 02:14:48;;;;;;;156.18;52.17;;;;;;;-10.03;71.30;100183.92;2009399;88;27720;-75
2021/12/27 02:17:50;;;;;;;142.15;51.98;;;;;;;-10.02;71.34;100186.13;2009963;88;28472;-75
2021/12/27 02:20:52;;;;;;;141.12;52.35;;;;;;;-10.01;71.33;100184.00;2009246;88;32293;-67
2021/12/27 02:24:04;;;;;;;144.82;52.25;;;;;;;-10.03;71.25;100173.56;2009201;88;32959;-68
2021/12/27 02:26:58;;;;;;;148.83;51.67;;;;;;;-10.05;71.18;100167.45;2006930;88;29347;-60
2021/12/27 02:30:02;;;;;;;160.60;54.83;;;;;;;-10.07;71.22;100168.70;2009234;88;27660;-62
2021/12/27 02:33:07;;;;;;;141.25;51.75;;;;;;;-10.07;71.27;100163.92;2010032;88;28797;-61
2021/12/27 02:36:11;;;;;;;146.95;54.53;;;;;;;-10.09;71.20;100166.91;2008860;88;31061;-63
2021/12/27 02:39:13;;;;;;;;;;;;;;;-10.10;71.29;100163.85;2012315;88;33608;-65
2021/12/27 02:42:19;;;;;;;157.25;55.20;;;;;;;-10.10;71.28;100153.06;2009743;88;29970;-64
2021/12/27 02:45:22;;;;;;;152.60;51.08;;;;;;;-10.12;71.25;100157.74;2009382;88;28305;-62
2021/12/27 02:48:28;;;;;;;145.05;51.10;;;;;;;-10.13;71.26;100150.37;2009280;88;28611;-63
2021/12/27 02:51:31;;;;;;;142.98;49.42;;;;;;;-10.14;71.33;100147.74;2009310;88;31041;-63
2021/12/27 02:54:33;;;;;;;135.50;48.85;;;;;;;-10.13;71.36;100155.55;2009486;88;34247;-63
2021/12/27 02:57:34;;;;;;;142.62;50.03;;;;;;;-10.10;71.26;100153.49;2010428;87;30189;-64
2021/12/27 03:00:41;;;;;;;146.82;49.40;;;;;;;-10.11;71.30;100143.96;2015179;88;27681;-61
2021/12/27 03:03:44;;;;;;;136.85;47.30;;;;;;;-10.11;71.23;100151.73;2014764;88;28732;-62
2021/12/27 03:06:46;;;;;;;135.12;49.35;;;;;;;-10.12;71.30;100141.77;2014482;88;31939;-69
2021/12/27 03:09:48;;;;;;;142.68;49.23;;;;;;;-10.10;71.27;100148.31;2014708;88;34197;-60
2021/12/27 03:12:54;;;;;;;125.60;44.27;;;;;;;-10.12;71.21;100153.42;2014819;88;29535;-67
2021/12/27 03:16:08;;;;;;;121.92;44.70;;;;;;;-10.16;71.17;100154.15;2015152;88;27599;-67
2021/12/27 03:19:10;;;;;;;119.47;43.80;;;;;;;-10.16;71.18;100159.33;2014734;88;29048;-62
2021/12/27 03:22:11;;;;;;;113.55;43.13;;;;;;;-10.16;71.12;100159.77;2014707;88;31412;-60
2021/12/27 03:25:20;;;;;;;122.67;41.13;;;;;;;-10.17;70.96;100153.69;2015010;88;33964;-68
2021/12/27 03:28:23;;;;;;;114.57;39.83;;;;;;;-10.19;70.91;100154.48;2014728;88;30298;-69
2021/12/27 03:31:25;;;;;;;127.45;42.30;;;;;;;-10.22;71.02;100145.78;2015173;88;28001;-72
2021/12/27 03:34:26;;;;;;;117.33;43.42;;;;;;;-10.22;71.07;100141.89;2014657;88;29015;-67
2021/12/27 03:37:28;;;;;;;121.42;41.95;;;;;;;-10.20;71.03;100141.95;2014668;88;31921;-70
2021/12/27 03:40:30;;;;;;;110.70;39.45;;;;;;;-10.24;70.97;100137.07;2014606;88;33763;-64
2021/12/27 03:43:32;;;;;;;120.15;44.25;;;;;;;-10.25;70.96;100134.45;2015080;88;30457;-66
2021/12/27 03:46:35;;;;;;;124.22;42.93;;;;;;;-10.27;70.95;100131.83;2014335;88;28383;-66
2021/12/27 03:49:38;;;;;;;124.25;44.05;;;;;;;-10.26;70.96;100138.77;2014896;88;29879;-66
2021/12/27 03:52:40;;;;;;;112.15;41.20;;;;;;;-10.26;70.98;100136.57;2014644;88;31034;-68
2021/12/27 03:55:42;;;;;;;118.08;40.43;;;;;;;-10.27;70.93;100131.83;2014487;88;33848;-60
2021/12/27 03:58:54;;;;;;;108.17;42.60;;;;;;;-10.28;70.93;100130.46;2014201;88;30546;-61
2021/12/27 04:01:53;;;;;;;109.92;41.77;;;;;;;-10.28;70.95;100131.36;2014612;88;27699;-75
2021/12/27 04:04:55;;;;;;;131.47;42.67;;;;;;;-10.27;70.96;100136.11;1982616;89;29729;-70
2021/12/27 04:08:03;;;;;;;117.57;40.50;;;;;;;-10.28;70.91;100136.53;2008219;88;31939;-75
2021/12/27 04:11:04;;;;;;;112.55;41.73;;;;;;;-10.29;70.94;100130.89;2015045;88;33008;-67
2021/12/27 04:14:08;;;;;;;126.30;41.25;;;;;;;-10.30;70.89;100138.59;2013813;88;33103;-65
2021/12/27 04:17:10;;;;;;;118.97;43.08;;;;;;;-10.30;70.89;100138.59;2015278;88;27636;-64
2021/12/27 04:20:12;;;;;;;116.40;42.13;;;;;;;-10.32;70.95;100137.66;2014678;88;29911;-68
2021/12/27 04:23:15;;;;;;;117.55;41.10;;;;;;;-10.34;70.89;100147.11;2014649;88;31923;-69
2021/12/27 04:26:16;;;;;;;108.95;42.62;;;;;;;-10.38;70.90;100141.83;2014606;88;34135;-65
2021/12/27 04:29:18;;;;;;;119.67;41.42;;;;;;;-10.42;70.86;100142.59;2014693;88;29140;-66
2021/12/27 04:32:20;;;;;;;109.83;40.15;;;;;;;-10.43;70.91;100139.53;2015022;88;27716;-76
2021/12/27 04:35:22;;;;;;;97.90;38.78;;;;;;;-10.43;70.94;100140.83;2014346;88;30076;-72
2021/12/27 04:38:24;;;;;;;111.42;39.48;;;;;;;-10.46;70.91;100143.31;2014377;88;32250;-73
2021/12/27 04:41:26;;;;;;;114.57;40.08;;;;;;;-10.45;71.09;100129.97;2014995;88;34111;-63
2021/12/27 04:44:28;;;;;;;115.90;39.13;;;;;;;-10.47;71.01;100122.56;2014473;88;29484;-70
2021/12/27 04:47:30;;;;;;;110.50;38.75;;;;;;;-10.46;71.04;100126.48;2014445;88;27740;-73
2021/12/27 04:50:34;;;;;;;112.17;40.03;;;;;;;-10.45;71.07;100118.31;2015046;88;29400;-75
2021/12/27 04:53:36;;;;;;;108.37;39.58;;;;;;;-10.46;71.08;100116.55;2014674;88;31048;-67
2021/12/27 04:56:38;;;;;;;93.87;35.70;;;;;;;-10.46;71.09;100119.14;2014715;88;33538;-69
2021/12/27 04:59:40;;;;;;;106.92;37.98;;;;;;;-10.47;71.07;100108.32;2017455;86;30287;-74
2021/12/27 05:02:42;;;;;;;100.85;36.55;;;;;;;-10.49;71.08;100106.09;2047578;86;28340;-68
2021/12/27 05:05:46;;;;;;;103.27;36.55;;;;;;;-10.51;71.16;100097.39;2047790;86;29055;-63
2021/12/27 05:08:49;;;;;;;113.03;35.58;;;;;;;-10.51;71.22;100094.41;2047627;86;31491;-71
2021/12/27 05:11:51;;;;;;;96.20;34.90;;;;;;;-10.51;71.23;100098.29;2047910;86;33394;-69
2021/12/27 05:14:53;;;;;;;104.90;37.88;;;;;;;-10.51;71.33;100100.88;2047656;86;30434;-75
2021/12/27 05:17:55;;;;;;;111.22;39.70;;;;;;;-10.47;71.39;100108.32;2041689;86;27722;-71
2021/12/27 05:20:57;;;;;;;118.37;42.93;;;;;;;-10.48;71.30;100102.67;2041810;86;29019;-70
2021/12/27 05:23:59;;;;;;;118.45;42.58;;;;;;;-10.49;71.31;100109.98;2041547;86;32343;-77
2021/12/27 05:27:01;;;;;;;122.20;43.50;;;;;;;-10.52;71.32;100107.28;2041369;87;33456;-73
2021/12/27 05:30:04;;;;;;;107.17;36.15;;;;;;;-10.48;71.36;100106.13;2041131;87;29957;-66
2021/12/27 05:33:06;;;;;;;100.05;36.88;;;;;;;-10.48;71.38;100093.62;2041408;87;27726;-77
2021/12/27 05:36:07;;;;;;;104.95;38.90;;;;;;;-10.46;71.49;100096.70;2041270;86;29507;-71
2021/12/27 05:39:16;;;;;;;100.62;38.28;;;;;;;-10.45;71.46;100093.72;2040981;87;32464;-76
2021/12/27 05:42:18;;;;;;;103.25;37.15;;;;;;;-10.43;71.49;100105.88;2041372;87;33046;-77
2021/12/27 05:45:20;;;;;;;89.13;33.88;;;;;;;-10.42;71.47;100099.00;2041062;87;30513;-74
2021/12/27 05:48:23;;;;;;;110.40;39.13;;;;;;;-10.43;71.48;100098.53;2041207;87;27756;-67
2021/12/27 05:51:26;;;;;;;99.87;33.90;;;;;;;-10.44;71.49;100097.64;2040481;87;28377;-68
2021/12/27 05:54:28;;;;;;;104.97;36.60;;;;;;;-10.45;71.53;100095.88;2041683;87;31780;-74
2021/12/27 05:57:30;;;;;;;86.53;34.25;;;;;;;-10.43;71.61;100094.66;2041260;87;32900;-75
2021/12/27 06:00:33;;;;;;;91.05;32.58;;;;;;;-10.44;71.77;100100.23;2043049;86;30256;-75
2021/12/27 06:03:35;;;;;;;86.57;30.40;;;;;;;-10.45;71.81;100096.31;2043732;87;27714;-73
2021/12/27 06:06:37;;;;;;;88.97;32.73;;;;;;;-10.47;71.98;100095.38;2043591;85;29033;-73
2021/12/27 06:09:39;;;;;;;83.35;32.80;;;;;;;-10.43;72.02;100094.66;2017346;87;32087;-68
2021/12/27 06:12:41;;;;;;;85.12;32.08;;;;;;;-10.41;72.12;100083.90;2043356;87;34505;-69
2021/12/27 06:15:43;;;;;;;95.50;34.80;;;;;;;-10.39;72.15;100080.55;2043604;87;29927;-69
2021/12/27 06:18:45;;;;;;;105.22;34.25;;;;;;;-10.36;72.21;100078.86;2043899;87;28085;-71
2021/12/27 06:21:49;;;;;;;95.25;34.67;;;;;;;-10.35;72.21;100079.33;2043549;87;30052;-70
2021/12/27 06:24:51;;;;;;;87.45;32.38;;;;;;;-10.35;72.27;100072.42;2043715;87;31016;-74
2021/12/27 06:27:55;;;;;;;84.62;32.30;;;;;;;-10.34;72.33;100069.43;2043674;87;33533;-73
2021/12/27 06:30:58;;;;;;;93.60;33.67;;;;;;;-10.31;72.33;100069.10;2042851;87;29441;-69
2021/12/27 06:34:00;;;;;;;93.12;33.60;;;;;;;-10.31;72.40;100075.58;2044007;87;27730;-67
2021/12/27 06:37:03;;;;;;;90.83;34.95;;;;;;;-10.31;72.35;100076.87;2043609;87;29900;-72
2021/12/27 06:40:07;;;;;;;88.95;30.52;;;;;;;-10.29;72.45;100080.39;2044140;87;31477;-71
2021/12/27 06:43:09;;;;;;;88.52;31.70;;;;;;;-10.30;72.41;100082.52;2043959;87;33786;-72
2021/12/27 06:46:12;;;;;;;89.37;30.08;;;;;;;-10.29;72.44;100084.67;2043611;87;30683;-74
2021/12/27 06:49:14;;;;;;;91.75;32.65;;;;;;;-10.29;72.54;100078.20;2043315;87;27699;-63
2021/12/27 06:52:16;;;;;;;84.60;32.80;;;;;;;-10.28;72.53;100068.30;2043991;87;28401;-71
2021/12/27 06:55:18;;;;;;;83.95;31.73;;;;;;;-10.27;72.62;100077.44;2043717;87;31903;-73
2021/12/27 06:58:20;;;;;;;80.42;29.05;;;;;;;-10.25;72.65;100089.98;2043646;87;34155;-75
2021/12/27 07:01:22;;;;;;;78.15;29.12;;;;;;;-10.23;72.61;100097.83;2044031;87;29829;-76
2021/12/27 07:04:26;;;;;;;90.47;32.50;;;;;;;-10.19;72.57;100099.69;2043960;87;28172;-74
2021/12/27 07:07:28;;;;;;;88.40;35.58;;;;;;;-10.16;72.61;100099.75;2044024;87;28627;-75
2021/12/27 07:10:31;;;;;;;89.17;34.20;;;;;;;-10.13;72.53;100095.11;2044066;87;31682;-76
2021/12/27 07:13:33;;;;;;;102.78;33.90;;;;;;;-10.11;72.55;100093.02;2043810;87;33413;-73
2021/12/27 07:16:35;;;;;;;85.80;34.70;;;;;;;-10.09;72.56;100082.28;2043867;87;29482;-74
2021/12/27 07:19:37;;;;;;;91.70;31.07;;;;;;;-10.04;72.61;100084.14;2043985;87;27610;-65
2021/12/27 07:22:39;;;;;;;79.45;32.67;;;;;;;-10.01;72.63;100091.58;2043874;87;29093;-69
2021/12/27 07:25:41;;;;;;;81.25;30.72;;;;;;;-9.98;72.58;100089.49;2043548;87;31903;-74
2021/12/27 07:28:43;;;;;;;88.35;32.15;;;;;;;-9.96;72.62;100083.54;2043485;87;34231;-74
2021/12/27 07:31:45;;;;;;;86.78;32.45;;;;;;;-9.90;72.71;100087.13;2043604;87;30536;-61
2021/12/27 07:34:48;;;;;;;88.17;32.35;;;;;;;-9.84;72.76;100087.32;2043916;87;27642;-68
2021/12/27 07:37:50;;;;;;;82.22;32.40;;;;;;;-9.78;72.79;100087.08;2043694;87;30073;-71
2021/12/27 07:40:52;;;;;;;90.53;31.57;;;;;;;-9.68;72.78;100082.18;2043536;87;31904;-69
2021/12/27 07:44:04;;;;;;;82.60;29.63;;;;;;;-9.61;72.71;100072.42;2043787;87;34341;-74
2021/12/27 07:47:08;;;;;;;84.77;32.63;;;;;;;-9.49;72.76;100073.20;2043242;87;27753;-74
2021/12/27 07:50:10;;;;;;;71.30;28.50;;;;;;;-9.38;72.67;100074.80;2043863;87;27758;-76
2021/12/27 07:53:12;;;;;;;83.35;31.50;;;;;;;-9.28;72.69;100066.41;2043707;87;29902;-64
2021/12/27 07:56:14;;;;;;;87.40;29.57;;;;;;;-9.17;72.64;100052.44;2043627;87;31725;-71
2021/12/27 07:59:16;;;;;;;78.65;32.55;;;;;;;-9.02;72.62;100048.07;2043706;85;33343;-74
2021/12/27 08:02:18;;;;;;;82.75;30.40;;;;;;;-8.90;72.52;100040.98;2043586;87;30570;-72
2021/12/27 08:05:20;;;;;;;78.35;30.15;;;;;;;-8.77;72.48;100041.78;2043777;87;27761;-68
2021/12/27 08:08:22;;;;;;;68.25;29.25;;;;;;;-8.73;72.28;100025.84;2043531;87;29909;-63
2021/12/27 08:11:26;;;;;;;83.47;30.57;;;;;;;-8.64;72.40;100038.17;2043445;87;32325;-73
2021/12/27 08:14:28;;;;;;;77.00;29.37;;;;;;;-8.59;72.34;100041.33;2044004;85;33013;-74
2021/12/27 08:17:31;;;;;;;78.02;31.20;;;;;;;-8.47;72.49;100038.52;2043965;85;29380;-73
2021/12/27 08:20:36;;;;;;;78.00;29.57;;;;;;;-8.37;72.34;100026.63;2043766;87;28125;-74
2021/12/27 08:23:38;;;;;;;95.50;32.73;;;;;;;-8.26;72.26;100031.62;2043307;87;28868;-71
2021/12/27 08:26:40;;;;;;;87.90;32.30;;;;;;;-8.18;72.34;100027.50;2043713;87;31235;-71
2021/12/27 08:29:43;;;;;;;93.62;33.70;;;;;;;-8.07;72.45;100030.73;2043472;87;33796;-74
2021/12/27 08:32:46;;;;;;;92.12;32.83;;;;;;;-7.97;72.41;100034.87;2043554;87;30486;-79
2021/12/27 08:35:49;;;;;;;89.90;33.18;;;;;;;-7.87;72.16;100038.98;2043716;87;27736;-69
2021/12/27 08:38:55;;;;;;;79.90;31.35;;;;;;;-7.83;72.06;100038.17;2043804;87;29495;-67
2021/12/27 08:41:57;;;;;;;78.22;30.62;;;;;;;-7.77;72.17;100032.25;2043389;87;31972;-67
2021/12/27 08:44:59;;;;;;;83.30;31.60;;;;;;;-7.66;72.25;100030.73;2043894;87;33881;-75
2021/12/27 08:48:04;;;;;;;82.40;33.98;;;;;;;-7.52;72.20;100026.67;2043948;87;30217;-67
2021/12/27 08:51:05;;;;;;;85.10;33.00;;;;;;;-7.39;72.26;100028.20;2043909;87;27782;-63
2021/12/27 08:54:10;;;;;;;80.00;34.25;;;;;;;-7.25;72.41;100033.67;2043776;87;29445;-62
2021/12/27 08:57:12;;;;;;;85.90;33.83;;;;;;;-7.14;71.93;100028.22;2043680;87;31211;-73
2021/12/27 09:00:17;;;;;;;83.17;35.10;;;;;;;-7.13;71.77;100013.06;2043715;85;32480;-63
2021/12/27 09:03:23;;;;;;;93.52;35.45;;;;;;;-7.10;71.58;100011.81;2043996;87;29538;-70
2021/12/27 09:06:25;;;;;;;91.53;36.00;;;;;;;-7.06;71.95;100016.64;2043733;87;27706;-67
2021/12/27 09:09:27;;;;;;;88.35;36.17;;;;;;;-6.90;72.24;100009.98;2043463;87;29843;-68
2021/12/27 09:12:29;;;;;;;95.50;36.80;;;;;;;-6.87;71.68;100003.09;2043545;86;31069;-62
2021/12/27 09:15:33;;;;;;;87.05;34.27;;;;;;;-6.81;71.94;99997.54;2043689;87;34162;-73
2021/12/27 09:18:38;;;;;;;81.37;31.85;;;;;;;-6.71;71.82;99994.22;2043683;87;30301;-65
2021/12/27 09:21:41;;;;;;;76.53;29.90;;;;;;;-6.64;71.77;99989.56;2044085;87;27713;-73
2021/12/27 09:24:43;;;;;;;73.70;32.00;;;;;;;-6.55;71.77;99991.44;2044852;87;28625;-75
2021/12/27 09:27:45;;;;;;;79.20;33.05;;;;;;;-6.46;71.73;99994.60;2044324;87;32271;-78
2021/12/27 09:30:47;;;;;;;78.10;33.88;;;;;;;-6.35;71.76;99993.02;2045506;87;34314;-70
2021/12/27 09:33:50;;;;;;;84.70;34.40;;;;;;;-6.28;71.70;99990.92;2045207;85;29928;-63
2021/12/27 09:36:52;;;;;;;84.37;34.83;;;;;;;-6.17;71.60;99985.00;2044690;87;27750;-74
2021/12/27 09:39:54;;;;;;;77.72;32.88;;;;;;;-6.09;71.57;99981.19;2043348;87;29570;-62
2021/12/27 09:43:01;;;;;;;80.30;33.63;;;;;;;-6.02;71.18;99972.56;2043190;87;31565;-63
2021/12/27 09:46:05;;;;;;;78.05;35.38;;;;;;;-5.94;71.63;99965.70;2043756;87;32950;-67
2021/12/27 09:49:15;;;;;;;70.12;30.95;;;;;;;-5.90;71.52;99946.63;2043385;87;30003;-71
2021/12/27 09:52:17;;;;;;;67.55;30.65;;;;;;;-5.78;71.04;99947.61;2043798;87;27722;-71
2021/12/27 09:55:20;;;;;;;71.92;30.68;;;;;;;-5.75;70.98;99946.34;2043446;87;29508;-67
2021/12/27 09:58:22;;;;;;;74.87;32.10;;;;;;;-5.71;70.97;99944.23;2043277;87;31080;-72
2021/12/27 10:01:26;;;;;;;73.92;30.90;;;;;;;-5.65;71.04;99931.23;2037529;86;33821;-62
2021/12/27 10:04:28;;;;;;;74.20;30.90;;;;;;;-5.59;70.67;99930.00;2035546;87;30602;-67
2021/12/27 10:07:31;;;;;;;78.28;31.07;;;;;;;-5.54;70.82;99926.12;2036036;87;27755;-60
2021/12/27 10:10:37;;;;;;;68.97;33.18;;;;;;;-5.46;70.86;99935.33;2035245;87;30772;-69
2021/12/27 10:13:39;;;;;;;71.95;30.90;;;;;;;-5.37;70.96;99938.02;2035725;87;31222;-68
2021/12/27 10:17:05;;;;;;;79.20;30.80;;;;;;;-5.30;70.35;99943.75;2013056;87;33788;-62
2021/12/27 10:20:16;;;;;;;;;;;;;;;-5.26;70.33;99929.87;1933126;91;31238;-67
2021/12/27 10:23:18;;;;;;;70.25;28.20;;;;;;;-5.20;70.40;99918.15;1930953;92;27693;-59
2021/12/27 10:26:22;;;;;;;72.45;29.32;;;;;;;-5.16;70.12;99920.38;1930722;92;27854;-60
2021/12/27 10:29:31;;;;;;;62.88;29.15;;;;;;;-5.13;70.09;99918.21;1890890;92;32135;-59
2021/12/27 10:32:33;;;;;;;62.20;27.62;;;;;;;-5.10;70.12;99906.04;1930832;92;33773;-66
2021/12/27 10:35:40;;;;;;;67.92;29.15;;;;;;;-5.04;69.97;99898.27;1930825;92;29739;-60
2021/12/27 10:38:43;;;;;;;68.62;29.07;;;;;;;-4.99;69.32;99896.98;1931209;92;27734;-62
2021/12/27 10:41:45;;;;;;;74.17;29.75;;;;;;;-4.99;69.26;99885.67;1930928;92;29505;-70
2021/12/27 10:44:53;;;;;;;72.92;29.60;;;;;;;-4.98;69.45;99892.20;1930697;92;31947;-67
2021/12/27 10:48:02;;;;;;;60.92;26.87;;;;;;;-4.93;69.72;99890.52;1930652;92;32582;-59
2021/12/27 10:51:07;;;;;;;68.12;27.67;;;;;;;-4.84;68.99;99882.27;1986129;87;30470;-59
2021/12/27 10:54:10;;;;;;;64.85;27.10;;;;;;;-4.84;69.00;99878.36;2035867;87;27859;-60
2021/12/27 10:57:14;;;;;;;67.30;27.82;;;;;;;-4.83;68.70;99884.91;2035486;87;29907;-65
2021/12/27 11:00:27;;;;;;;68.22;27.77;;;;;;;-4.79;68.85;99873.59;2013131;86;32403;-64
2021/12/27 11:03:38;;;;;;;66.05;26.85;;;;;;;-4.76;68.69;99870.14;2035611;87;33846;-64
2021/12/27 11:06:40;;;;;;;64.65;27.77;;;;;;;-4.74;68.44;99864.05;2035413;87;30335;-62
2021/12/27 11:09:43;;;;;;;59.38;28.40;;;;;;;-4.69;68.59;99858.84;2035657;87;27679;-64
2021/12/27 11:12:46;;;;;;;64.27;28.07;;;;;;;-4.64;68.65;99861.05;2035687;87;29515;-64
2021/12/27 11:15:52;;;;;;;77.90;27.58;;;;;;;-4.60;68.09;99852.38;2013223;87;27757;-60
2021/12/27 11:18:56;;;;;;;48.40;20.72;;;;;;;-4.54;68.43;99851.94;2036075;87;34176;-60
2021/12/27 11:22:00;;;;;;;74.97;30.68;;;;;;;-4.51;67.83;99863.30;2035794;87;29349;-70
2021/12/27 11:25:06;;;;;;;66.05;30.20;;;;;;;-4.47;68.16;99852.42;2035845;87;27739;-72
2021/12/27 11:28:45;;;;;;;67.10;27.80;;;;;;;-4.45;67.67;99852.86;2035641;87;29984;-62
2021/12/27 11:31:51;;;;;;;67.05;28.95;;;;;;;-4.43;67.84;99854.19;2035541;87;31925;-63
2021/12/27 11:35:00;;;;;;;75.75;30.27;;;;;;;-4.39;67.62;99850.73;2035361;87;34336;-74
2021/12/27 11:38:04;;;;;;;75.97;30.97;;;;;;;-4.36;67.89;99848.09;2035762;87;30186;-65
2021/12/27 11:41:26;;;;;;;65.90;30.23;;;;;;;-4.23;67.75;99839.02;2035878;87;27722;-67
2021/12/27 11:44:44;;;;;;;73.52;31.77;;;;;;;-4.16;67.68;99839.45;2035846;87;28660;-64
2021/12/27 11:47:48;;;;;;;78.40;32.93;;;;;;;-4.10;68.12;99849.05;2035542;87;33156;-61
2021/12/27 11:51:08;;;;;;;72.80;31.73;;;;;;;-4.07;67.77;99836.88;1984541;87;33207;-61
2021/12/27 11:54:31;;;;;;;76.77;33.92;;;;;;;-4.06;67.42;99836.02;2035657;87;29352;-61
2021/12/27 11:57:56;;;;;;;78.47;32.45;;;;;;;-4.05;67.64;99835.56;2035448;87;27831;-77
2021/12/27 12:01:00;;;;;;;75.15;33.53;;;;;;;-4.02;67.91;99827.28;2034816;86;27721;-75
2021/12/27 12:04:03;;;;;;;75.03;32.70;;;;;;;-3.97;67.79;99820.32;2035606;87;31079;-72
2021/12/27 12:07:43;;;;;;;81.17;33.75;;;;;;;-3.90;67.63;99819.03;2035643;87;34157;-68
2021/12/27 12:11:13;;;;;;;75.65;32.80;;;;;;;-3.90;67.71;99810.73;2034848;87;30563;-60
2021/12/27 12:14:51;;;;;;;82.57;32.98;;;;;;;-3.88;67.32;99798.53;2035817;87;27742;-70
2021/12/27 12:18:39;;;;;;;75.65;35.05;;;;;;;-3.87;67.33;99800.28;2035425;87;29930;-71
2021/12/27 12:21:56;;;;;;;81.02;33.80;;;;;;;-3.84;67.47;99792.86;2030135;87;31684;-62
2021/12/27 12:25:30;;;;;;;76.35;34.33;;;;;;;-3.82;67.56;99792.00;2033594;87;29264;-73
2021/12/27 12:28:32;;;;;;;80.72;34.13;;;;;;;-3.76;67.83;99794.17;2035710;87;29345;-63
2021/12/27 12:31:37;;;;;;;72.22;32.08;;;;;;;-3.69;67.71;99797.23;2035674;87;27733;-60
2021/12/27 12:34:42;;;;;;;77.92;32.85;;;;;;;-3.64;67.68;99795.92;2035828;87;29048;-64
2021/12/27 12:37:44;;;;;;;78.90;33.30;;;;;;;-3.61;67.74;99788.93;2035833;87;31900;-76
2021/12/27 12:41:06;;;;;;;79.67;34.03;;;;;;;-3.57;67.66;99785.45;2035406;87;34331;-77
2021/12/27 12:44:08;;;;;;;79.70;32.95;;;;;;;-3.55;67.48;99785.02;1931235;91;29342;-64
2021/12/27 12:47:11;;;;;;;75.08;32.05;;;;;;;-3.51;67.33;99787.19;1930978;92;28142;-65
2021/12/27 12:50:19;;;;;;;67.30;31.52;;;;;;;-3.48;67.69;99779.34;1930673;92;28889;-73
2021/12/27 12:53:31;;;;;;;68.80;31.62;;;;;;;-3.44;67.45;99781.09;1930889;92;31054;-73
2021/12/27 12:56:37;;;;;;;67.15;31.15;;;;;;;-3.41;67.25;99784.12;1878836;94;29958;-64
2021/12/27 12:59:43;;;;;;;66.33;30.02;;;;;;;-3.41;67.22;99787.64;1850917;96;30164;-70
2021/12/27 13:02:45;;;;;;;66.00;30.17;;;;;;;-3.40;67.37;99795.04;1850721;94;27867;-71
2021/12/27 13:05:59;;;;;;;73.05;31.45;;;;;;;-3.38;67.40;99793.30;1850726;96;29158;-67
2021/12/27 13:09:04;;;;;;;74.10;32.88;;;;;;;-3.38;67.22;99788.06;1850705;96;32173;-68
2021/12/27 13:12:06;;;;;;;67.90;29.85;;;;;;;-3.36;67.54;99788.94;1850717;94;33660;-71
2021/12/27 13:15:16;;;;;;;70.15;31.30;;;;;;;-3.32;67.49;99787.17;1850796;96;29392;-66
2021/12/27 13:18:22;;;;;;;76.10;33.38;;;;;;;-3.29;67.63;99784.11;1850846;96;27769;-74
2021/12/27 13:21:25;;;;;;;73.55;31.07;;;;;;;-3.27;67.42;99782.36;1916949;90;29505;-62
2021/12/27 13:24:32;;;;;;;77.80;32.67;;;;;;;-3.25;67.32;99787.16;1958303;90;27812;-64
2021/12/27 13:27:33;;;;;;;55.98;25.08;;;;;;;-3.22;67.54;99781.92;1961716;90;33000;-71
2021/12/27 13:31:19;;;;;;;80.75;33.95;;;;;;;-3.17;67.36;99776.67;1961396;90;29742;-63
2021/12/27 13:34:21;;;;;;;68.28;31.20;;;;;;;-3.16;67.45;99777.10;1961428;90;27933;-68
2021/12/27 13:37:28;;;;;;;70.37;30.10;;;;;;;-3.15;67.15;99781.92;1961533;90;29088;-60
2021/12/27 13:40:30;;;;;;;71.00;30.92;;;;;;;-3.16;66.54;99778.41;1961551;89;31061;-75
2021/12/27 13:43:38;;;;;;;72.37;32.48;;;;;;;-3.18;67.04;99788.02;1961523;90;33869;-62
2021/12/27 13:46:53;;;;;;;67.08;30.52;;;;;;;-3.21;66.90;99792.84;1960418;90;27794;-67
2021/12/27 13:49:58;;;;;;;73.30;31.47;;;;;;;-3.23;66.87;99788.03;1961715;90;27830;-68
2021/12/27 13:53:00;;;;;;;64.80;29.25;;;;;;;-3.26;66.68;99787.17;1958322;90;28672;-70
2021/12/27 13:56:12;;;;;;;63.50;29.07;;;;;;;-3.30;66.93;99785.42;1906660;91;31053;-68
2021/12/27 13:59:22;;;;;;;70.97;29.27;;;;;;;-3.31;67.04;99781.06;1927122;90;33043;-72